sensor_id;sensor_type;location;lat;lon;timestamp;P1;durP1;ratioP1;P2;durP2;ratioP2
74630;SDS011;63138;55.082;38.804;2023-06-22T00:01:18;28.42;;;14.80;;
74630;SDS011;63138;55.082;38.804;2023-06-22T00:03:44;28.25;;;13.15;;
74630;SDS011;63138;55.082;38.804;2023-06-22T00:06:10;24.40;;;11.73;;
74630;SDS011;63138;55.082;38.804;2023-06-22T00:08:36;26.73;;;13.20;;
74630;SDS011;63138;55.082;38.804;2023-06-22T00:11:02;26.23;;;12.02;;
74630;SDS011;63138;55.082;38.804;2023-06-22T00:13:28;25.40;;;13.10;;
74630;SDS011;63138;55.082;38.804;2023-06-22T00:15:54;23.85;;;11.77;;
74630;SDS011;63138;55.082;38.804;2023-06-22T00:18:20;23.63;;;11.32;;
74630;SDS011;63138;55.082;38.804;2023-06-22T00:20:46;21.53;;;11.00;;
74630;SDS011;63138;55.082;38.804;2023-06-22T00:23:12;35.38;;;13.77;;
74630;SDS011;63138;55.082;38.804;2023-06-22T00:25:41;49.63;;;16.40;;
74630;SDS011;63138;55.082;38.804;2023-06-22T00:28:07;40.88;;;16.90;;
74630;SDS011;63138;55.082;38.804;2023-06-22T00:30:35;46.03;;;15.23;;
74630;SDS011;63138;55.082;38.804;2023-06-22T00:33:02;46.80;;;15.60;;
74630;SDS011;63138;55.082;38.804;2023-06-22T00:35:28;44.03;;;15.68;;
74630;SDS011;63138;55.082;38.804;2023-06-22T00:37:58;31.40;;;14.60;;
74630;SDS011;63138;55.082;38.804;2023-06-22T00:40:49;43.65;;;14.90;;
74630;SDS011;63138;55.082;38.804;2023-06-22T00:43:15;36.10;;;13.50;;
74630;SDS011;63138;55.082;38.804;2023-06-22T00:45:40;24.40;;;11.53;;
74630;SDS011;63138;55.082;38.804;2023-06-22T00:48:06;26.15;;;11.75;;
74630;SDS011;63138;55.082;38.804;2023-06-22T00:50:34;21.42;;;10.73;;
74630;SDS011;63138;55.082;38.804;2023-06-22T00:53:03;28.25;;;11.13;;
74630;SDS011;63138;55.082;38.804;2023-06-22T00:55:37;18.90;;;9.70;;
74630;SDS011;63138;55.082;38.804;2023-06-22T00:58:07;20.92;;;9.40;;
74630;SDS011;63138;55.082;38.804;2023-06-22T01:00:36;19.17;;;9.80;;
74630;SDS011;63138;55.082;38.804;2023-06-22T01:03:03;18.10;;;8.75;;
74630;SDS011;63138;55.082;38.804;2023-06-22T01:05:34;20.60;;;8.25;;
74630;SDS011;63138;55.082;38.804;2023-06-22T01:10:48;16.80;;;8.77;;
74630;SDS011;63138;55.082;38.804;2023-06-22T01:13:29;26.83;;;10.70;;
74630;SDS011;63138;55.082;38.804;2023-06-22T01:19:49;28.35;;;14.73;;
74630;SDS011;63138;55.082;38.804;2023-06-22T01:21:48;27.53;;;12.63;;
74630;SDS011;63138;55.082;38.804;2023-06-22T01:29:43;25.55;;;10.98;;
74630;SDS011;63138;55.082;38.804;2023-06-22T01:32:10;28.45;;;12.18;;
74630;SDS011;63138;55.082;38.804;2023-06-22T01:34:37;22.23;;;11.07;;
74630;SDS011;63138;55.082;38.804;2023-06-22T01:37:05;26.45;;;12.32;;
74630;SDS011;63138;55.082;38.804;2023-06-22T01:39:32;27.63;;;11.35;;
74630;SDS011;63138;55.082;38.804;2023-06-22T01:41:59;30.13;;;12.23;;
74630;SDS011;63138;55.082;38.804;2023-06-22T01:44:25;32.17;;;11.95;;
74630;SDS011;63138;55.082;38.804;2023-06-22T01:46:52;32.17;;;12.07;;
74630;SDS011;63138;55.082;38.804;2023-06-22T01:49:18;29.17;;;13.15;;
74630;SDS011;63138;55.082;38.804;2023-06-22T01:51:44;29.58;;;12.40;;
74630;SDS011;63138;55.082;38.804;2023-06-22T01:54:10;27.38;;;12.52;;
74630;SDS011;63138;55.082;38.804;2023-06-22T01:56:38;29.52;;;12.60;;
74630;SDS011;63138;55.082;38.804;2023-06-22T01:59:09;21.23;;;11.73;;
74630;SDS011;63138;55.082;38.804;2023-06-22T02:01:53;23.88;;;11.85;;
74630;SDS011;63138;55.082;38.804;2023-06-22T02:04:24;21.92;;;11.82;;
74630;SDS011;63138;55.082;38.804;2023-06-22T02:06:56;21.17;;;11.68;;
74630;SDS011;63138;55.082;38.804;2023-06-22T02:09:44;23.67;;;11.20;;
74630;SDS011;63138;55.082;38.804;2023-06-22T02:12:11;25.40;;;11.40;;
74630;SDS011;63138;55.082;38.804;2023-06-22T02:14:39;23.75;;;11.05;;
74630;SDS011;63138;55.082;38.804;2023-06-22T02:17:07;24.20;;;12.05;;
74630;SDS011;63138;55.082;38.804;2023-06-22T02:19:38;28.30;;;12.52;;
74630;SDS011;63138;55.082;38.804;2023-06-22T02:22:07;27.23;;;12.77;;
74630;SDS011;63138;55.082;38.804;2023-06-22T02:24:33;32.40;;;13.30;;
74630;SDS011;63138;55.082;38.804;2023-06-22T02:26:59;26.52;;;14.10;;
74630;SDS011;63138;55.082;38.804;2023-06-22T02:29:26;34.72;;;15.15;;
74630;SDS011;63138;55.082;38.804;2023-06-22T02:31:55;35.72;;;14.30;;
74630;SDS011;63138;55.082;38.804;2023-06-22T02:34:21;38.53;;;15.73;;
74630;SDS011;63138;55.082;38.804;2023-06-22T02:36:47;38.63;;;15.70;;
74630;SDS011;63138;55.082;38.804;2023-06-22T02:39:18;27.80;;;13.50;;
74630;SDS011;63138;55.082;38.804;2023-06-22T02:41:53;27.88;;;13.48;;
74630;SDS011;63138;55.082;38.804;2023-06-22T02:44:21;32.08;;;13.45;;
74630;SDS011;63138;55.082;38.804;2023-06-22T02:46:47;29.23;;;12.10;;
74630;SDS011;63138;55.082;38.804;2023-06-22T02:49:15;28.77;;;12.70;;
74630;SDS011;63138;55.082;38.804;2023-06-22T02:51:42;23.98;;;12.65;;
74630;SDS011;63138;55.082;38.804;2023-06-22T02:54:11;28.10;;;13.55;;
74630;SDS011;63138;55.082;38.804;2023-06-22T02:56:37;34.67;;;14.13;;
74630;SDS011;63138;55.082;38.804;2023-06-22T02:59:03;21.23;;;12.18;;
74630;SDS011;63138;55.082;38.804;2023-06-22T03:01:35;23.60;;;12.60;;
74630;SDS011;63138;55.082;38.804;2023-06-22T03:04:08;27.40;;;10.32;;
74630;SDS011;63138;55.082;38.804;2023-06-22T03:06:35;24.42;;;12.38;;
74630;SDS011;63138;55.082;38.804;2023-06-22T03:09:02;29.10;;;13.33;;
74630;SDS011;63138;55.082;38.804;2023-06-22T03:11:31;22.77;;;11.80;;
74630;SDS011;63138;55.082;38.804;2023-06-22T03:13:58;25.55;;;12.88;;
74630;SDS011;63138;55.082;38.804;2023-06-22T03:16:28;24.08;;;12.02;;
74630;SDS011;63138;55.082;38.804;2023-06-22T03:18:55;23.83;;;11.45;;
74630;SDS011;63138;55.082;38.804;2023-06-22T03:21:22;20.67;;;11.33;;
74630;SDS011;63138;55.082;38.804;2023-06-22T03:23:50;20.15;;;11.07;;
74630;SDS011;63138;55.082;38.804;2023-06-22T03:26:16;25.48;;;12.10;;
74630;SDS011;63138;55.082;38.804;2023-06-22T03:28:44;23.23;;;11.93;;
74630;SDS011;63138;55.082;38.804;2023-06-22T03:31:10;21.17;;;9.88;;
74630;SDS011;63138;55.082;38.804;2023-06-22T03:33:39;16.33;;;8.50;;
74630;SDS011;63138;55.082;38.804;2023-06-22T03:36:05;20.15;;;9.95;;
74630;SDS011;63138;55.082;38.804;2023-06-22T03:38:30;15.88;;;9.35;;
74630;SDS011;63138;55.082;38.804;2023-06-22T03:40:57;17.85;;;9.27;;
74630;SDS011;63138;55.082;38.804;2023-06-22T03:43:24;14.70;;;8.23;;
74630;SDS011;63138;55.082;38.804;2023-06-22T03:45:50;15.35;;;8.30;;
74630;SDS011;63138;55.082;38.804;2023-06-22T03:48:16;13.75;;;7.25;;
74630;SDS011;63138;55.082;38.804;2023-06-22T03:50:42;14.43;;;8.10;;
74630;SDS011;63138;55.082;38.804;2023-06-22T03:53:09;15.70;;;8.37;;
74630;SDS011;63138;55.082;38.804;2023-06-22T03:55:36;14.55;;;8.75;;
74630;SDS011;63138;55.082;38.804;2023-06-22T03:58:03;14.70;;;9.77;;
74630;SDS011;63138;55.082;38.804;2023-06-22T04:00:32;15.90;;;9.50;;
74630;SDS011;63138;55.082;38.804;2023-06-22T04:02:58;18.52;;;9.68;;
74630;SDS011;63138;55.082;38.804;2023-06-22T04:05:24;14.60;;;8.80;;
74630;SDS011;63138;55.082;38.804;2023-06-22T04:07:50;14.15;;;8.15;;
74630;SDS011;63138;55.082;38.804;2023-06-22T04:10:17;14.68;;;7.97;;
74630;SDS011;63138;55.082;38.804;2023-06-22T04:12:43;18.60;;;8.48;;
74630;SDS011;63138;55.082;38.804;2023-06-22T04:15:08;15.57;;;9.13;;
74630;SDS011;63138;55.082;38.804;2023-06-22T04:17:35;14.02;;;8.52;;
74630;SDS011;63138;55.082;38.804;2023-06-22T04:20:01;12.57;;;8.40;;
74630;SDS011;63138;55.082;38.804;2023-06-22T04:22:30;16.23;;;8.80;;
74630;SDS011;63138;55.082;38.804;2023-06-22T04:24:56;16.17;;;9.25;;
74630;SDS011;63138;55.082;38.804;2023-06-22T04:27:22;16.92;;;8.70;;
74630;SDS011;63138;55.082;38.804;2023-06-22T04:29:48;11.18;;;7.88;;
74630;SDS011;63138;55.082;38.804;2023-06-22T04:32:15;16.67;;;8.83;;
74630;SDS011;63138;55.082;38.804;2023-06-22T04:34:42;13.20;;;8.48;;
74630;SDS011;63138;55.082;38.804;2023-06-22T04:37:08;14.80;;;9.20;;
74630;SDS011;63138;55.082;38.804;2023-06-22T04:39:35;11.82;;;8.52;;
74630;SDS011;63138;55.082;38.804;2023-06-22T04:42:19;10.23;;;7.40;;
74630;SDS011;63138;55.082;38.804;2023-06-22T04:44:45;10.40;;;6.80;;
74630;SDS011;63138;55.082;38.804;2023-06-22T04:47:11;13.88;;;8.18;;
74630;SDS011;63138;55.082;38.804;2023-06-22T04:49:37;17.30;;;7.88;;
74630;SDS011;63138;55.082;38.804;2023-06-22T04:52:04;17.88;;;7.28;;
74630;SDS011;63138;55.082;38.804;2023-06-22T04:54:31;19.97;;;8.83;;
74630;SDS011;63138;55.082;38.804;2023-06-22T04:57:00;13.98;;;7.30;;
74630;SDS011;63138;55.082;38.804;2023-06-22T04:59:31;15.48;;;7.32;;
74630;SDS011;63138;55.082;38.804;2023-06-22T05:01:57;14.52;;;8.57;;
74630;SDS011;63138;55.082;38.804;2023-06-22T05:04:25;15.48;;;8.02;;
74630;SDS011;63138;55.082;38.804;2023-06-22T05:06:53;16.87;;;9.20;;
74630;SDS011;63138;55.082;38.804;2023-06-22T05:09:20;18.55;;;12.75;;
74630;SDS011;63138;55.082;38.804;2023-06-22T05:11:46;23.63;;;11.07;;
74630;SDS011;63138;55.082;38.804;2023-06-22T05:14:12;20.63;;;9.55;;
74630;SDS011;63138;55.082;38.804;2023-06-22T05:16:38;18.92;;;8.05;;
74630;SDS011;63138;55.082;38.804;2023-06-22T05:19:06;20.63;;;9.73;;
74630;SDS011;63138;55.082;38.804;2023-06-22T05:21:32;17.55;;;10.77;;
74630;SDS011;63138;55.082;38.804;2023-06-22T05:23:58;30.33;;;15.05;;
74630;SDS011;63138;55.082;38.804;2023-06-22T05:26:26;31.92;;;17.77;;
74630;SDS011;63138;55.082;38.804;2023-06-22T05:28:52;24.33;;;13.60;;
74630;SDS011;63138;55.082;38.804;2023-06-22T05:31:19;26.10;;;14.05;;
74630;SDS011;63138;55.082;38.804;2023-06-22T05:33:45;30.65;;;15.25;;
74630;SDS011;63138;55.082;38.804;2023-06-22T05:36:12;31.92;;;18.25;;
74630;SDS011;63138;55.082;38.804;2023-06-22T05:38:39;32.10;;;17.83;;
74630;SDS011;63138;55.082;38.804;2023-06-22T05:41:06;13.97;;;8.10;;
74630;SDS011;63138;55.082;38.804;2023-06-22T05:43:32;14.90;;;9.68;;
74630;SDS011;63138;55.082;38.804;2023-06-22T05:46:00;18.40;;;9.35;;
74630;SDS011;63138;55.082;38.804;2023-06-22T05:48:27;14.93;;;8.48;;
74630;SDS011;63138;55.082;38.804;2023-06-22T05:50:53;15.05;;;9.90;;
74630;SDS011;63138;55.082;38.804;2023-06-22T05:53:19;19.37;;;10.57;;
74630;SDS011;63138;55.082;38.804;2023-06-22T05:55:46;15.45;;;10.93;;
74630;SDS011;63138;55.082;38.804;2023-06-22T05:58:12;19.63;;;11.23;;
74630;SDS011;63138;55.082;38.804;2023-06-22T06:00:39;15.13;;;9.80;;
74630;SDS011;63138;55.082;38.804;2023-06-22T06:03:09;14.80;;;9.90;;
74630;SDS011;63138;55.082;38.804;2023-06-22T06:05:35;11.90;;;8.17;;
74630;SDS011;63138;55.082;38.804;2023-06-22T06:08:02;10.88;;;7.38;;
74630;SDS011;63138;55.082;38.804;2023-06-22T06:10:48;14.88;;;8.20;;
74630;SDS011;63138;55.082;38.804;2023-06-22T06:13:16;13.35;;;7.90;;
74630;SDS011;63138;55.082;38.804;2023-06-22T06:15:42;12.13;;;7.57;;
74630;SDS011;63138;55.082;38.804;2023-06-22T06:18:08;10.07;;;6.43;;
74630;SDS011;63138;55.082;38.804;2023-06-22T06:20:53;9.65;;;6.80;;
74630;SDS011;63138;55.082;38.804;2023-06-22T06:23:18;10.97;;;7.37;;
74630;SDS011;63138;55.082;38.804;2023-06-22T06:25:44;9.47;;;6.50;;
74630;SDS011;63138;55.082;38.804;2023-06-22T06:28:32;9.32;;;5.55;;
74630;SDS011;63138;55.082;38.804;2023-06-22T06:30:59;7.47;;;5.55;;
74630;SDS011;63138;55.082;38.804;2023-06-22T06:33:25;6.50;;;5.90;;
74630;SDS011;63138;55.082;38.804;2023-06-22T06:35:51;7.55;;;6.15;;
74630;SDS011;63138;55.082;38.804;2023-06-22T06:38:16;7.47;;;5.75;;
74630;SDS011;63138;55.082;38.804;2023-06-22T06:40:44;7.97;;;5.30;;
74630;SDS011;63138;55.082;38.804;2023-06-22T06:43:10;7.23;;;5.37;;
74630;SDS011;63138;55.082;38.804;2023-06-22T06:45:36;9.17;;;5.37;;
74630;SDS011;63138;55.082;38.804;2023-06-22T06:48:02;6.40;;;5.47;;
74630;SDS011;63138;55.082;38.804;2023-06-22T06:50:28;9.97;;;5.40;;
74630;SDS011;63138;55.082;38.804;2023-06-22T06:52:54;7.88;;;5.53;;
74630;SDS011;63138;55.082;38.804;2023-06-22T06:55:38;11.45;;;5.45;;
74630;SDS011;63138;55.082;38.804;2023-06-22T06:58:04;9.10;;;5.73;;
74630;SDS011;63138;55.082;38.804;2023-06-22T07:00:33;9.18;;;5.28;;
74630;SDS011;63138;55.082;38.804;2023-06-22T07:03:01;12.45;;;6.95;;
74630;SDS011;63138;55.082;38.804;2023-06-22T07:08:12;11.02;;;7.15;;
74630;SDS011;63138;55.082;38.804;2023-06-22T07:10:57;9.43;;;5.87;;
74630;SDS011;63138;55.082;38.804;2023-06-22T07:13:23;8.15;;;6.60;;
74630;SDS011;63138;55.082;38.804;2023-06-22T07:15:49;7.80;;;5.68;;
74630;SDS011;63138;55.082;38.804;2023-06-22T07:18:15;7.30;;;4.70;;
74630;SDS011;63138;55.082;38.804;2023-06-22T07:20:41;6.35;;;3.97;;
74630;SDS011;63138;55.082;38.804;2023-06-22T07:23:07;6.40;;;4.28;;
74630;SDS011;63138;55.082;38.804;2023-06-22T07:25:32;5.47;;;3.90;;
74630;SDS011;63138;55.082;38.804;2023-06-22T07:28:02;10.53;;;5.43;;
74630;SDS011;63138;55.082;38.804;2023-06-22T07:30:48;5.90;;;4.78;;
74630;SDS011;63138;55.082;38.804;2023-06-22T07:33:17;8.10;;;4.45;;
74630;SDS011;63138;55.082;38.804;2023-06-22T07:35:43;7.18;;;4.50;;
74630;SDS011;63138;55.082;38.804;2023-06-22T07:38:09;5.70;;;4.33;;
74630;SDS011;63138;55.082;38.804;2023-06-22T07:40:36;5.93;;;4.25;;
74630;SDS011;63138;55.082;38.804;2023-06-22T07:43:02;8.57;;;3.95;;
74630;SDS011;63138;55.082;38.804;2023-06-22T07:45:29;6.50;;;4.38;;
74630;SDS011;63138;55.082;38.804;2023-06-22T07:47:55;6.07;;;4.60;;
74630;SDS011;63138;55.082;38.804;2023-06-22T07:50:21;6.47;;;5.87;;
74630;SDS011;63138;55.082;38.804;2023-06-22T07:52:47;5.70;;;4.35;;
74630;SDS011;63138;55.082;38.804;2023-06-22T07:55:13;8.63;;;4.97;;
74630;SDS011;63138;55.082;38.804;2023-06-22T07:57:39;8.37;;;4.60;;
74630;SDS011;63138;55.082;38.804;2023-06-22T08:00:07;7.57;;;4.47;;
74630;SDS011;63138;55.082;38.804;2023-06-22T08:02:44;5.88;;;4.03;;
74630;SDS011;63138;55.082;38.804;2023-06-22T08:05:12;5.40;;;4.50;;
74630;SDS011;63138;55.082;38.804;2023-06-22T08:07:39;7.05;;;4.43;;
74630;SDS011;63138;55.082;38.804;2023-06-22T08:10:05;6.73;;;4.93;;
74630;SDS011;63138;55.082;38.804;2023-06-22T08:12:35;6.32;;;4.40;;
74630;SDS011;63138;55.082;38.804;2023-06-22T08:15:01;7.63;;;5.10;;
74630;SDS011;63138;55.082;38.804;2023-06-22T08:17:45;7.78;;;4.38;;
74630;SDS011;63138;55.082;38.804;2023-06-22T08:20:31;5.63;;;4.60;;
74630;SDS011;63138;55.082;38.804;2023-06-22T08:23:15;6.63;;;4.47;;
74630;SDS011;63138;55.082;38.804;2023-06-22T08:25:42;7.05;;;4.00;;
74630;SDS011;63138;55.082;38.804;2023-06-22T08:28:08;5.30;;;4.20;;
74630;SDS011;63138;55.082;38.804;2023-06-22T08:30:36;8.03;;;5.07;;
74630;SDS011;63138;55.082;38.804;2023-06-22T08:35:49;5.80;;;5.10;;
74630;SDS011;63138;55.082;38.804;2023-06-22T08:38:15;6.00;;;5.18;;
74630;SDS011;63138;55.082;38.804;2023-06-22T08:40:44;5.55;;;4.95;;
74630;SDS011;63138;55.082;38.804;2023-06-22T08:43:10;5.67;;;4.10;;
74630;SDS011;63138;55.082;38.804;2023-06-22T08:45:35;6.03;;;4.22;;
74630;SDS011;63138;55.082;38.804;2023-06-22T08:48:20;8.30;;;4.15;;
74630;SDS011;63138;55.082;38.804;2023-06-22T08:50:46;6.43;;;3.93;;
74630;SDS011;63138;55.082;38.804;2023-06-22T08:53:30;7.90;;;4.43;;
74630;SDS011;63138;55.082;38.804;2023-06-22T08:55:56;5.95;;;4.45;;
74630;SDS011;63138;55.082;38.804;2023-06-22T08:58:47;5.53;;;4.60;;
74630;SDS011;63138;55.082;38.804;2023-06-22T09:01:13;7.17;;;4.70;;
74630;SDS011;63138;55.082;38.804;2023-06-22T09:03:41;7.65;;;5.47;;
74630;SDS011;63138;55.082;38.804;2023-06-22T09:06:07;7.10;;;5.22;;
74630;SDS011;63138;55.082;38.804;2023-06-22T09:09:18;7.20;;;5.35;;
74630;SDS011;63138;55.082;38.804;2023-06-22T09:12:03;7.15;;;4.65;;
74630;SDS011;63138;55.082;38.804;2023-06-22T09:14:48;6.23;;;5.20;;
74630;SDS011;63138;55.082;38.804;2023-06-22T09:17:15;6.03;;;4.88;;
74630;SDS011;63138;55.082;38.804;2023-06-22T09:20:00;5.25;;;4.28;;
74630;SDS011;63138;55.082;38.804;2023-06-22T09:22:27;7.28;;;4.97;;
74630;SDS011;63138;55.082;38.804;2023-06-22T09:24:55;7.65;;;4.93;;
74630;SDS011;63138;55.082;38.804;2023-06-22T09:27:21;7.23;;;4.67;;
74630;SDS011;63138;55.082;38.804;2023-06-22T09:29:49;6.97;;;5.22;;
74630;SDS011;63138;55.082;38.804;2023-06-22T09:32:52;5.90;;;4.65;;
74630;SDS011;63138;55.082;38.804;2023-06-22T09:35:18;6.05;;;4.90;;
74630;SDS011;63138;55.082;38.804;2023-06-22T09:37:43;7.80;;;5.33;;
74630;SDS011;63138;55.082;38.804;2023-06-22T09:40:10;7.68;;;5.15;;
74630;SDS011;63138;55.082;38.804;2023-06-22T09:42:38;6.32;;;5.28;;
74630;SDS011;63138;55.082;38.804;2023-06-22T09:45:05;6.50;;;4.70;;
74630;SDS011;63138;55.082;38.804;2023-06-22T09:47:33;7.53;;;5.23;;
74630;SDS011;63138;55.082;38.804;2023-06-22T09:49:59;6.78;;;4.70;;
74630;SDS011;63138;55.082;38.804;2023-06-22T09:53:03;8.88;;;5.50;;
74630;SDS011;63138;55.082;38.804;2023-06-22T09:55:29;7.13;;;4.82;;
74630;SDS011;63138;55.082;38.804;2023-06-22T09:57:55;6.80;;;5.37;;
74630;SDS011;63138;55.082;38.804;2023-06-22T10:00:21;7.40;;;5.18;;
74630;SDS011;63138;55.082;38.804;2023-06-22T10:02:47;6.20;;;4.93;;
74630;SDS011;63138;55.082;38.804;2023-06-22T10:05:13;6.17;;;4.83;;
74630;SDS011;63138;55.082;38.804;2023-06-22T10:07:40;5.78;;;4.50;;
74630;SDS011;63138;55.082;38.804;2023-06-22T10:10:09;7.70;;;4.03;;
74630;SDS011;63138;55.082;38.804;2023-06-22T10:13:13;6.72;;;4.50;;
74630;SDS011;63138;55.082;38.804;2023-06-22T10:15:40;5.47;;;4.40;;
74630;SDS011;63138;55.082;38.804;2023-06-22T10:18:07;6.75;;;4.90;;
74630;SDS011;63138;55.082;38.804;2023-06-22T10:20:33;7.22;;;4.40;;
74630;SDS011;63138;55.082;38.804;2023-06-22T10:23:00;6.28;;;4.35;;
74630;SDS011;63138;55.082;38.804;2023-06-22T10:25:26;4.87;;;4.20;;
74630;SDS011;63138;55.082;38.804;2023-06-22T10:27:53;5.40;;;4.40;;
74630;SDS011;63138;55.082;38.804;2023-06-22T10:30:19;7.38;;;4.78;;
74630;SDS011;63138;55.082;38.804;2023-06-22T10:32:45;5.32;;;4.22;;
74630;SDS011;63138;55.082;38.804;2023-06-22T10:35:11;6.13;;;4.27;;
74630;SDS011;63138;55.082;38.804;2023-06-22T10:37:56;7.43;;;4.10;;
74630;SDS011;63138;55.082;38.804;2023-06-22T10:40:22;5.47;;;4.30;;
74630;SDS011;63138;55.082;38.804;2023-06-22T10:45:33;5.88;;;4.20;;
74630;SDS011;63138;55.082;38.804;2023-06-22T10:48:17;5.70;;;4.05;;
74630;SDS011;63138;55.082;38.804;2023-06-22T10:50:43;5.33;;;3.80;;
74630;SDS011;63138;55.082;38.804;2023-06-22T10:55:53;5.05;;;4.10;;
74630;SDS011;63138;55.082;38.804;2023-06-22T10:58:20;8.90;;;4.95;;
74630;SDS011;63138;55.082;38.804;2023-06-22T11:01:05;6.68;;;4.38;;
74630;SDS011;63138;55.082;38.804;2023-06-22T11:03:32;5.47;;;4.07;;
74630;SDS011;63138;55.082;38.804;2023-06-22T11:05:58;6.22;;;4.28;;
74630;SDS011;63138;55.082;38.804;2023-06-22T11:08:43;6.38;;;4.25;;
74630;SDS011;63138;55.082;38.804;2023-06-22T11:13:55;8.67;;;4.70;;
74630;SDS011;63138;55.082;38.804;2023-06-22T11:16:20;5.00;;;4.03;;
74630;SDS011;63138;55.082;38.804;2023-06-22T11:19:09;6.18;;;4.30;;
74630;SDS011;63138;55.082;38.804;2023-06-22T11:21:36;6.82;;;4.18;;
74630;SDS011;63138;55.082;38.804;2023-06-22T11:24:02;5.77;;;4.17;;
74630;SDS011;63138;55.082;38.804;2023-06-22T11:29:31;6.03;;;4.03;;
74630;SDS011;63138;55.082;38.804;2023-06-22T11:31:57;5.90;;;3.93;;
74630;SDS011;63138;55.082;38.804;2023-06-22T11:34:23;5.65;;;4.10;;
74630;SDS011;63138;55.082;38.804;2023-06-22T11:36:50;6.15;;;3.65;;
74630;SDS011;63138;55.082;38.804;2023-06-22T11:39:16;5.15;;;3.95;;
74630;SDS011;63138;55.082;38.804;2023-06-22T11:41:42;5.70;;;3.90;;
74630;SDS011;63138;55.082;38.804;2023-06-22T11:44:08;9.87;;;4.40;;
74630;SDS011;63138;55.082;38.804;2023-06-22T11:46:34;7.35;;;4.25;;
74630;SDS011;63138;55.082;38.804;2023-06-22T11:49:19;6.47;;;4.57;;
74630;SDS011;63138;55.082;38.804;2023-06-22T11:51:45;7.10;;;3.90;;
74630;SDS011;63138;55.082;38.804;2023-06-22T11:54:29;6.57;;;4.22;;
74630;SDS011;63138;55.082;38.804;2023-06-22T11:56:56;9.52;;;4.65;;
74630;SDS011;63138;55.082;38.804;2023-06-22T11:59:22;5.80;;;4.25;;
74630;SDS011;63138;55.082;38.804;2023-06-22T12:02:07;6.87;;;4.23;;
74630;SDS011;63138;55.082;38.804;2023-06-22T12:04:53;5.28;;;3.65;;
74630;SDS011;63138;55.082;38.804;2023-06-22T12:07:21;5.93;;;3.63;;
74630;SDS011;63138;55.082;38.804;2023-06-22T12:09:47;6.63;;;4.40;;
74630;SDS011;63138;55.082;38.804;2023-06-22T12:12:31;7.85;;;4.60;;
74630;SDS011;63138;55.082;38.804;2023-06-22T12:14:59;6.80;;;4.43;;
74630;SDS011;63138;55.082;38.804;2023-06-22T12:17:31;5.90;;;4.22;;
74630;SDS011;63138;55.082;38.804;2023-06-22T12:19:59;6.00;;;4.70;;
74630;SDS011;63138;55.082;38.804;2023-06-22T12:22:25;6.38;;;4.22;;
74630;SDS011;63138;55.082;38.804;2023-06-22T12:24:51;6.90;;;4.40;;
74630;SDS011;63138;55.082;38.804;2023-06-22T12:27:17;6.22;;;4.63;;
74630;SDS011;63138;55.082;38.804;2023-06-22T12:29:46;7.30;;;3.97;;
74630;SDS011;63138;55.082;38.804;2023-06-22T12:32:32;7.22;;;4.28;;
74630;SDS011;63138;55.082;38.804;2023-06-22T12:35:35;7.07;;;4.30;;
74630;SDS011;63138;55.082;38.804;2023-06-22T12:38:02;6.55;;;4.00;;
74630;SDS011;63138;55.082;38.804;2023-06-22T12:40:28;5.80;;;3.80;;
74630;SDS011;63138;55.082;38.804;2023-06-22T12:42:54;5.57;;;3.80;;
74630;SDS011;63138;55.082;38.804;2023-06-22T12:51:28;5.10;;;4.18;;
74630;SDS011;63138;55.082;38.804;2023-06-22T12:53:54;5.90;;;3.60;;
74630;SDS011;63138;55.082;38.804;2023-06-22T12:56:38;6.88;;;3.70;;
74630;SDS011;63138;55.082;38.804;2023-06-22T12:59:04;8.30;;;4.10;;
74630;SDS011;63138;55.082;38.804;2023-06-22T13:01:31;5.43;;;3.90;;
74630;SDS011;63138;55.082;38.804;2023-06-22T13:04:34;7.53;;;4.07;;
74630;SDS011;63138;55.082;38.804;2023-06-22T13:07:00;7.27;;;4.07;;
74630;SDS011;63138;55.082;38.804;2023-06-22T13:09:26;5.30;;;3.70;;
74630;SDS011;63138;55.082;38.804;2023-06-22T13:11:53;6.40;;;4.18;;
74630;SDS011;63138;55.082;38.804;2023-06-22T13:14:56;7.03;;;4.40;;
74630;SDS011;63138;55.082;38.804;2023-06-22T13:17:41;9.48;;;4.47;;
74630;SDS011;63138;55.082;38.804;2023-06-22T13:20:07;6.53;;;4.33;;
74630;SDS011;63138;55.082;38.804;2023-06-22T13:22:34;6.05;;;4.22;;
74630;SDS011;63138;55.082;38.804;2023-06-22T13:25:38;5.65;;;3.65;;
74630;SDS011;63138;55.082;38.804;2023-06-22T13:28:04;6.38;;;4.50;;
74630;SDS011;63138;55.082;38.804;2023-06-22T13:30:49;6.07;;;4.53;;
74630;SDS011;63138;55.082;38.804;2023-06-22T13:33:16;6.50;;;4.20;;
74630;SDS011;63138;55.082;38.804;2023-06-22T13:35:42;7.32;;;4.68;;
74630;SDS011;63138;55.082;38.804;2023-06-22T13:40:53;6.13;;;4.45;;
74630;SDS011;63138;55.082;38.804;2023-06-22T13:46:06;5.38;;;4.05;;
74630;SDS011;63138;55.082;38.804;2023-06-22T13:48:31;5.63;;;3.85;;
74630;SDS011;63138;55.082;38.804;2023-06-22T13:50:57;6.57;;;4.73;;
74630;SDS011;63138;55.082;38.804;2023-06-22T13:53:25;6.05;;;4.10;;
74630;SDS011;63138;55.082;38.804;2023-06-22T13:55:51;6.55;;;4.50;;
74630;SDS011;63138;55.082;38.804;2023-06-22T13:58:17;7.13;;;4.75;;
74630;SDS011;63138;55.082;38.804;2023-06-22T14:00:45;6.70;;;4.75;;
74630;SDS011;63138;55.082;38.804;2023-06-22T14:03:11;7.67;;;4.77;;
74630;SDS011;63138;55.082;38.804;2023-06-22T14:05:55;7.30;;;4.80;;
74630;SDS011;63138;55.082;38.804;2023-06-22T14:08:21;6.20;;;4.38;;
74630;SDS011;63138;55.082;38.804;2023-06-22T14:10:49;6.93;;;4.30;;
74630;SDS011;63138;55.082;38.804;2023-06-22T14:13:14;8.85;;;4.80;;
74630;SDS011;63138;55.082;38.804;2023-06-22T14:15:40;6.87;;;4.70;;
74630;SDS011;63138;55.082;38.804;2023-06-22T14:18:06;8.73;;;4.60;;
74630;SDS011;63138;55.082;38.804;2023-06-22T14:20:32;8.60;;;4.80;;
74630;SDS011;63138;55.082;38.804;2023-06-22T14:26:03;7.60;;;4.47;;
74630;SDS011;63138;55.082;38.804;2023-06-22T14:28:48;6.32;;;4.35;;
74630;SDS011;63138;55.082;38.804;2023-06-22T14:31:16;7.25;;;4.20;;
74630;SDS011;63138;55.082;38.804;2023-06-22T14:33:46;7.70;;;4.50;;
74630;SDS011;63138;55.082;38.804;2023-06-22T14:36:31;5.72;;;4.18;;
74630;SDS011;63138;55.082;38.804;2023-06-22T14:39:15;7.20;;;4.45;;
74630;SDS011;63138;55.082;38.804;2023-06-22T14:42:00;7.80;;;4.07;;
74630;SDS011;63138;55.082;38.804;2023-06-22T14:44:26;5.68;;;4.10;;
74630;SDS011;63138;55.082;38.804;2023-06-22T14:46:55;7.50;;;4.43;;
74630;SDS011;63138;55.082;38.804;2023-06-22T14:49:21;7.53;;;4.40;;
74630;SDS011;63138;55.082;38.804;2023-06-22T14:52:06;6.63;;;4.38;;
74630;SDS011;63138;55.082;38.804;2023-06-22T14:54:33;8.30;;;4.35;;
74630;SDS011;63138;55.082;38.804;2023-06-22T14:57:18;5.80;;;4.30;;
74630;SDS011;63138;55.082;38.804;2023-06-22T14:59:48;7.55;;;4.82;;
74630;SDS011;63138;55.082;38.804;2023-06-22T15:02:15;6.95;;;4.82;;
74630;SDS011;63138;55.082;38.804;2023-06-22T15:04:41;8.27;;;4.57;;
74630;SDS011;63138;55.082;38.804;2023-06-22T15:07:07;5.47;;;4.00;;
74630;SDS011;63138;55.082;38.804;2023-06-22T15:09:52;7.00;;;4.40;;
74630;SDS011;63138;55.082;38.804;2023-06-22T15:12:18;7.40;;;4.28;;
74630;SDS011;63138;55.082;38.804;2023-06-22T15:14:44;6.05;;;4.05;;
74630;SDS011;63138;55.082;38.804;2023-06-22T15:17:10;6.73;;;4.03;;
74630;SDS011;63138;55.082;38.804;2023-06-22T15:19:39;6.20;;;4.13;;
74630;SDS011;63138;55.082;38.804;2023-06-22T15:22:05;6.43;;;4.20;;
74630;SDS011;63138;55.082;38.804;2023-06-22T15:24:33;7.10;;;4.72;;